Terminal Aerodrome Forecast
Issued by NWS Sioux Falls, SD

Home | Current Version | Previous Version | Text Only | Print | Product List | Glossary On
Versions: 1 2 3 4 5 6 7 8 9 10 11 12 13 14
000
FTUS43 KFSD 051620 AAA
TAFFSD
TAF AMD
KFSD 051620Z 0516/0612 10013G18KT P6SM OVC025
      TEMPO 0516/0517 SCT025 OVC060
     FM051900 13013G19KT P6SM OVC020
      TEMPO 0520/0523 5SM SHRA OVC015
     FM060000 12012KT P6SM BKN040
     FM060500 13011KT 6SM BR OVC015
     FM060900 14014KT 5SM -SHRA BR OVC012=

USA.gov is the U.S. government's official web portal to all federal, state and local government web resources and services.